createdAt,value
2023-01-31T00:01:32.220Z,10.88
2023-01-31T00:04:02.858Z,9.95
2023-01-31T00:06:31.422Z,10.88
2023-01-31T00:08:59.809Z,11.40
2023-01-31T00:11:29.112Z,11.65
2023-01-31T00:13:58.052Z,11.13
2023-01-31T00:16:25.520Z,9.88
2023-01-31T00:18:52.578Z,10.60
2023-01-31T00:21:22.536Z,10.45
2023-01-31T00:23:50.605Z,10.32
2023-01-31T00:26:19.862Z,10.80
2023-01-31T00:28:48.315Z,10.95
2023-01-31T00:31:16.903Z,10.20
2023-01-31T00:33:45.847Z,13.35
2023-01-31T00:36:14.493Z,10.73
2023-01-31T00:38:42.888Z,11.20
2023-01-31T00:41:09.858Z,11.25
2023-01-31T00:43:36.949Z,11.55
2023-01-31T00:46:04.520Z,10.88
2023-01-31T00:48:31.782Z,11.15
2023-01-31T00:50:58.799Z,11.35
2023-01-31T00:53:25.868Z,11.32
2023-01-31T00:56:01.158Z,12.93
2023-01-31T00:58:28.318Z,12.57
2023-01-31T01:00:55.356Z,11.48
2023-01-31T01:03:22.363Z,11.93
2023-01-31T01:16:13.617Z,12.32
2023-01-31T01:18:40.668Z,10.50
2023-01-31T01:21:09.416Z,10.75
2023-01-31T01:23:36.671Z,12.15
2023-01-31T01:26:04.345Z,10.70
2023-01-31T01:28:34.327Z,11.43
2023-01-31T01:37:59.895Z,11.50
2023-01-31T01:40:35.169Z,10.68
2023-01-31T01:43:02.316Z,11.25
2023-01-31T01:45:29.505Z,11.43
2023-01-31T01:47:59.984Z,11.15
2023-01-31T01:50:31.043Z,11.27
2023-01-31T01:53:06.430Z,10.80
2023-01-31T01:55:36.855Z,11.80
2023-01-31T01:58:08.674Z,11.88
2023-01-31T02:00:37.304Z,11.45
2023-01-31T02:03:08.275Z,11.02
2023-01-31T02:05:40.490Z,11.43
2023-01-31T02:08:09.104Z,12.02
2023-01-31T02:10:42.411Z,12.15
2023-01-31T02:13:11.237Z,12.40
2023-01-31T02:15:38.354Z,12.07
2023-01-31T02:18:07.096Z,12.18
2023-01-31T02:21:04.926Z,12.05
2023-01-31T02:24:06.728Z,12.93
2023-01-31T02:27:07.454Z,11.93
2023-01-31T02:30:00.027Z,11.93
2023-01-31T02:32:59.837Z,12.32
2023-01-31T02:35:42.807Z,12.32
2023-01-31T02:38:19.426Z,12.25
2023-01-31T02:40:52.738Z,11.43
2023-01-31T02:43:24.072Z,12.43
2023-01-31T02:45:56.971Z,12.38
2023-01-31T02:48:38.808Z,12.00
2023-01-31T02:51:08.515Z,11.88
2023-01-31T02:53:40.614Z,11.38
2023-01-31T02:56:12.967Z,11.60
2023-01-31T02:58:43.186Z,11.80
2023-01-31T03:01:15.381Z,11.10
2023-01-31T03:03:44.464Z,11.10
2023-01-31T03:06:37.687Z,8.73
2023-01-31T03:09:08.510Z,10.55
2023-01-31T03:12:01.807Z,9.75
2023-01-31T03:14:36.297Z,8.70
2023-01-31T03:17:12.990Z,8.90
2023-01-31T03:19:48.182Z,9.30
2023-01-31T03:22:19.425Z,9.60
2023-01-31T03:24:49.024Z,9.18
2023-01-31T03:27:17.617Z,9.30
2023-01-31T03:29:45.388Z,8.52
2023-01-31T03:32:20.477Z,7.93
2023-01-31T03:34:49.718Z,8.55
2023-01-31T03:37:23.837Z,8.50
2023-01-31T03:39:56.946Z,7.97
2023-01-31T03:42:28.961Z,8.20
2023-01-31T03:45:02.624Z,8.70
2023-01-31T03:47:35.331Z,9.27
2023-01-31T03:50:07.475Z,8.05
2023-01-31T03:52:38.487Z,8.27
2023-01-31T03:55:10.655Z,8.30
2023-01-31T03:57:40.592Z,7.88
2023-01-31T04:00:11.618Z,7.53
2023-01-31T04:02:40.272Z,7.28
2023-01-31T04:05:12.762Z,8.05
2023-01-31T04:07:40.969Z,8.23
2023-01-31T04:10:13.018Z,7.93
2023-01-31T04:12:40.584Z,7.47
2023-01-31T04:15:08.772Z,7.20
2023-01-31T04:17:36.799Z,7.55
2023-01-31T04:20:05.115Z,9.05
2023-01-31T04:22:33.660Z,7.68
2023-01-31T04:25:00.677Z,8.18
2023-01-31T04:27:27.709Z,8.10
2023-01-31T04:29:54.689Z,7.53
2023-01-31T04:32:21.691Z,7.30
2023-01-31T04:34:48.687Z,7.53
2023-01-31T04:37:18.730Z,8.57
2023-01-31T04:39:47.112Z,8.30
2023-01-31T04:42:14.206Z,6.97
2023-01-31T04:44:41.205Z,7.65
2023-01-31T04:47:08.267Z,8.23
2023-01-31T04:49:35.410Z,9.50
2023-01-31T04:52:02.658Z,8.15
2023-01-31T04:54:29.738Z,8.43
2023-01-31T04:56:58.370Z,8.43
2023-01-31T04:59:25.469Z,8.50
2023-01-31T05:01:52.512Z,8.77
2023-01-31T05:04:19.790Z,7.88
2023-01-31T05:06:46.922Z,8.02
2023-01-31T05:09:20.246Z,7.15
2023-01-31T05:11:47.278Z,7.30
2023-01-31T05:14:15.627Z,8.10
2023-01-31T05:16:42.687Z,7.30
2023-01-31T05:19:09.936Z,7.55
2023-01-31T05:21:36.971Z,8.23
2023-01-31T05:24:04.806Z,7.93
2023-01-31T05:26:32.473Z,7.22
2023-01-31T05:28:59.569Z,7.60
2023-01-31T05:31:31.551Z,8.15
2023-01-31T05:33:58.686Z,7.35
2023-01-31T05:36:25.740Z,7.80
2023-01-31T05:38:52.793Z,7.47
2023-01-31T05:41:19.911Z,7.97
2023-01-31T05:43:47.075Z,8.30
2023-01-31T05:46:14.192Z,8.10
2023-01-31T05:48:42.650Z,7.88
2023-01-31T05:51:09.653Z,7.22
2023-01-31T05:53:36.660Z,7.32
2023-01-31T05:56:03.802Z,7.82
2023-01-31T05:58:30.970Z,7.13
2023-01-31T06:00:58.069Z,9.93
2023-01-31T06:03:25.350Z,9.27
2023-01-31T06:05:53.885Z,9.52
2023-01-31T06:08:22.974Z,8.00
2023-01-31T06:10:50.067Z,7.97
2023-01-31T06:13:17.162Z,8.15
2023-01-31T06:15:44.434Z,8.77
2023-01-31T06:18:11.727Z,8.38
2023-01-31T06:20:38.716Z,7.43
2023-01-31T06:23:07.218Z,8.23
2023-01-31T06:25:34.311Z,8.13
2023-01-31T06:28:01.352Z,7.82
2023-01-31T06:30:28.501Z,8.18
2023-01-31T06:32:56.317Z,8.13
2023-01-31T06:35:23.525Z,8.18
2023-01-31T06:37:50.536Z,8.40
2023-01-31T06:40:19.087Z,7.43
2023-01-31T06:42:46.299Z,8.10
2023-01-31T06:45:13.252Z,9.02
2023-01-31T06:47:40.341Z,8.13
2023-01-31T06:50:07.867Z,7.78
2023-01-31T06:52:35.044Z,8.25
2023-01-31T06:55:02.535Z,7.85
2023-01-31T06:57:31.420Z,8.18
2023-01-31T06:59:58.535Z,9.90
2023-01-31T07:02:25.818Z,8.43
2023-01-31T07:04:53.060Z,9.40
2023-01-31T07:07:20.283Z,8.60
2023-01-31T07:09:47.379Z,10.25
2023-01-31T07:12:14.911Z,7.97
2023-01-31T07:14:43.422Z,8.23
2023-01-31T07:17:10.527Z,7.40
2023-01-31T07:19:37.619Z,9.43
2023-01-31T07:22:04.756Z,8.85
2023-01-31T07:24:32.359Z,8.02
2023-01-31T07:26:59.576Z,8.52
2023-01-31T07:29:26.779Z,8.32
2023-01-31T07:31:56.244Z,8.23
2023-01-31T07:34:23.346Z,7.93
2023-01-31T07:36:50.748Z,7.78
2023-01-31T07:39:18.035Z,9.00
2023-01-31T07:41:45.000Z,8.43
2023-01-31T07:44:12.037Z,8.00
2023-01-31T07:46:40.465Z,8.85
2023-01-31T07:49:10.461Z,8.20
2023-01-31T07:51:37.666Z,7.07
2023-01-31T07:54:04.787Z,7.13
2023-01-31T07:56:32.215Z,6.47
2023-01-31T07:58:59.778Z,7.72
2023-01-31T08:01:28.307Z,7.93
2023-01-31T08:03:55.433Z,6.47
2023-01-31T08:06:24.157Z,7.70
2023-01-31T08:08:51.306Z,7.43
2023-01-31T08:11:18.532Z,6.80
2023-01-31T08:13:45.688Z,7.43
2023-01-31T08:16:14.472Z,6.90
2023-01-31T08:18:41.639Z,7.78
2023-01-31T08:21:11.766Z,6.05
2023-01-31T08:23:40.132Z,6.25
2023-01-31T08:26:08.726Z,8.52
2023-01-31T08:28:36.127Z,6.93
2023-01-31T08:31:08.897Z,6.93
2023-01-31T08:33:37.260Z,7.38
2023-01-31T08:36:12.057Z,6.30
2023-01-31T08:38:40.459Z,8.48
2023-01-31T08:41:07.513Z,7.35
2023-01-31T08:43:45.633Z,7.13
2023-01-31T08:46:21.324Z,6.63
2023-01-31T08:48:48.296Z,7.28
2023-01-31T08:51:15.307Z,8.02
2023-01-31T08:53:44.589Z,6.70
2023-01-31T08:56:12.789Z,6.97
2023-01-31T08:58:42.077Z,6.05
2023-01-31T09:01:11.649Z,6.50
2023-01-31T09:03:39.590Z,5.35
2023-01-31T09:06:12.841Z,6.30
2023-01-31T09:08:39.864Z,8.10
2023-01-31T09:11:08.291Z,6.95
2023-01-31T09:13:35.845Z,6.40
2023-01-31T09:16:06.084Z,7.13
2023-01-31T09:18:33.798Z,6.55
2023-01-31T09:21:05.041Z,6.35
2023-01-31T09:23:32.251Z,7.03
2023-01-31T09:25:59.300Z,6.15
2023-01-31T09:28:27.722Z,7.70
2023-01-31T09:30:55.816Z,6.18
2023-01-31T09:33:23.535Z,6.70
2023-01-31T09:35:57.066Z,6.00
2023-01-31T09:38:24.222Z,5.72
2023-01-31T09:40:59.440Z,6.95
2023-01-31T09:43:32.336Z,6.05
2023-01-31T09:46:02.521Z,5.88
2023-01-31T09:48:32.894Z,6.15
2023-01-31T09:50:59.963Z,7.07
2023-01-31T09:53:32.821Z,6.20
2023-01-31T09:56:14.163Z,6.90
2023-01-31T09:58:48.597Z,7.07
2023-01-31T10:01:21.560Z,5.70
2023-01-31T10:04:15.184Z,5.50
2023-01-31T10:06:50.068Z,6.47
2023-01-31T10:09:25.576Z,6.63
2023-01-31T10:11:57.183Z,6.97
2023-01-31T10:14:33.079Z,6.65
2023-01-31T10:17:07.308Z,7.40
2023-01-31T10:19:41.602Z,7.53
2023-01-31T10:22:12.303Z,8.40
2023-01-31T10:24:44.472Z,8.88
2023-01-31T10:27:19.417Z,7.53
2023-01-31T10:32:25.764Z,9.35
2023-01-31T10:34:59.092Z,5.15
2023-01-31T10:37:32.765Z,7.82
2023-01-31T10:40:03.864Z,8.95
2023-01-31T10:42:33.483Z,9.02
2023-01-31T10:45:15.381Z,9.15
2023-01-31T10:47:50.108Z,10.85
2023-01-31T10:50:27.379Z,8.30
2023-01-31T10:53:13.891Z,8.60
2023-01-31T10:55:56.716Z,9.20
2023-01-31T10:58:24.339Z,8.50
2023-01-31T11:00:53.371Z,8.52
2023-01-31T11:03:20.824Z,8.43
2023-01-31T11:05:53.777Z,7.78
2023-01-31T11:08:32.551Z,7.28
2023-01-31T11:11:06.660Z,8.23
2023-01-31T11:13:33.608Z,8.57
2023-01-31T11:16:05.140Z,7.28
2023-01-31T11:18:35.752Z,8.80
2023-01-31T11:21:04.269Z,7.45
2023-01-31T11:23:34.064Z,8.32
2023-01-31T11:26:01.412Z,7.63
2023-01-31T11:28:35.331Z,8.15
2023-01-31T11:31:06.369Z,8.95
2023-01-31T11:33:41.755Z,7.85
2023-01-31T11:36:10.289Z,8.88
2023-01-31T11:38:37.379Z,8.32
2023-01-31T11:41:28.191Z,8.80
2023-01-31T11:44:14.899Z,8.38
2023-01-31T11:46:53.009Z,8.38
2023-01-31T11:49:39.537Z,8.93
2023-01-31T11:52:14.092Z,6.85
2023-01-31T11:54:46.573Z,9.05
2023-01-31T11:57:21.236Z,8.38
2023-01-31T11:59:50.430Z,8.20
2023-01-31T12:02:27.798Z,7.97
2023-01-31T12:04:55.697Z,8.02
2023-01-31T12:07:24.763Z,8.05
2023-01-31T12:09:51.948Z,9.02
2023-01-31T12:12:29.787Z,7.05
2023-01-31T12:15:00.653Z,8.20
2023-01-31T12:17:31.469Z,8.40
2023-01-31T12:20:27.708Z,8.00
2023-01-31T12:23:07.123Z,9.13
2023-01-31T12:25:46.235Z,8.77
2023-01-31T12:28:31.580Z,8.18
2023-01-31T12:33:44.052Z,8.90
2023-01-31T12:36:29.571Z,9.20
2023-01-31T12:39:12.370Z,9.90
2023-01-31T12:41:41.708Z,9.15
2023-01-31T12:44:37.351Z,11.27
2023-01-31T12:47:28.768Z,10.18
2023-01-31T12:50:17.860Z,11.70
2023-01-31T12:52:52.865Z,11.02
2023-01-31T12:55:28.530Z,9.20
2023-01-31T12:58:08.687Z,10.35
2023-01-31T13:00:47.395Z,10.07
2023-01-31T13:03:38.196Z,10.40
2023-01-31T13:06:11.446Z,10.25
2023-01-31T13:08:41.178Z,10.68
2023-01-31T13:11:16.931Z,10.75
2023-01-31T13:13:47.778Z,11.63
2023-01-31T13:16:21.671Z,10.60
2023-01-31T13:18:52.393Z,11.50
2023-01-31T13:21:25.314Z,12.93
2023-01-31T13:23:58.281Z,12.45
2023-01-31T13:26:30.299Z,10.43
2023-01-31T13:29:01.796Z,13.40
2023-01-31T13:31:31.957Z,12.80
2023-01-31T13:34:05.328Z,12.50
2023-01-31T13:36:41.376Z,9.60
2023-01-31T13:39:15.705Z,11.98
2023-01-31T13:41:42.756Z,13.07
2023-01-31T13:44:13.868Z,11.82
2023-01-31T13:46:47.070Z,13.90
2023-01-31T13:49:21.092Z,13.82
2023-01-31T13:51:52.855Z,13.57
2023-01-31T13:54:23.619Z,12.60
2023-01-31T13:56:56.925Z,12.48
2023-01-31T13:59:27.448Z,13.98
2023-01-31T14:01:56.691Z,11.55
2023-01-31T14:04:30.517Z,11.40
2023-01-31T14:07:25.527Z,15.27
2023-01-31T14:10:27.689Z,14.20
2023-01-31T14:13:36.904Z,12.65
2023-01-31T14:16:23.399Z,12.02
2023-01-31T14:18:50.598Z,14.55
2023-01-31T14:21:54.077Z,15.32
2023-01-31T14:25:03.942Z,13.88
2023-01-31T14:27:46.076Z,12.38
2023-01-31T14:30:28.652Z,13.63
2023-01-31T14:33:07.769Z,15.93
2023-01-31T14:36:00.379Z,13.55
2023-01-31T14:38:43.814Z,13.45
2023-01-31T14:41:22.655Z,13.73
2023-01-31T14:43:59.863Z,14.07
2023-01-31T14:46:44.838Z,15.77
2023-01-31T14:49:31.649Z,12.63
2023-01-31T14:52:18.963Z,11.60
2023-01-31T14:55:03.758Z,11.02
2023-01-31T14:57:38.443Z,12.75
2023-01-31T15:00:16.983Z,11.45
2023-01-31T15:02:50.981Z,12.35
2023-01-31T15:05:25.741Z,9.87
2023-01-31T15:08:07.019Z,12.35
2023-01-31T15:10:53.787Z,12.77
2023-01-31T15:13:41.518Z,13.05
2023-01-31T15:16:17.571Z,12.80
2023-01-31T15:18:46.747Z,12.65
2023-01-31T15:21:21.622Z,14.13
2023-01-31T15:26:17.991Z,10.50
2023-01-31T15:28:47.275Z,11.82
2023-01-31T15:31:19.273Z,11.50
2023-01-31T15:33:50.695Z,12.45
2023-01-31T15:36:22.016Z,11.73
2023-01-31T15:38:54.401Z,11.60
2023-01-31T15:41:24.221Z,12.48
2023-01-31T15:43:53.929Z,11.30
2023-01-31T15:46:27.871Z,9.68
2023-01-31T15:48:55.554Z,9.85
2023-01-31T15:51:23.198Z,9.85
2023-01-31T15:54:01.380Z,9.35
2023-01-31T15:56:28.971Z,9.52
2023-01-31T15:58:58.584Z,7.60
2023-01-31T16:01:29.508Z,9.73
2023-01-31T16:03:58.626Z,10.13
2023-01-31T16:06:32.011Z,9.85
2023-01-31T16:09:01.568Z,8.07
2023-01-31T16:11:33.285Z,8.38
2023-01-31T16:14:05.916Z,7.50
2023-01-31T16:16:35.425Z,7.07
2023-01-31T16:19:03.778Z,7.30
2023-01-31T16:21:34.081Z,5.38
2023-01-31T16:24:03.187Z,5.55
2023-01-31T16:26:33.866Z,4.88
2023-01-31T16:29:09.350Z,4.68
2023-01-31T16:31:47.502Z,5.45
2023-01-31T16:34:27.021Z,4.38
2023-01-31T16:36:59.856Z,4.63
2023-01-31T16:39:47.738Z,5.13
2023-01-31T16:42:24.780Z,5.15
2023-01-31T16:44:53.213Z,5.68
2023-01-31T16:47:34.103Z,9.82
2023-01-31T16:50:41.858Z,6.38
2023-01-31T16:53:25.264Z,6.70
2023-01-31T16:56:21.250Z,5.95
2023-01-31T16:58:57.358Z,5.97
2023-01-31T17:01:28.570Z,6.05
2023-01-31T17:04:08.407Z,5.28
2023-01-31T17:06:36.842Z,5.72
2023-01-31T17:09:06.288Z,5.20
2023-01-31T17:11:42.756Z,5.28
2023-01-31T17:14:10.930Z,5.60
2023-01-31T17:16:39.756Z,5.85
2023-01-31T17:19:06.746Z,5.53
2023-01-31T17:21:39.191Z,5.10
2023-01-31T17:24:06.809Z,5.93
2023-01-31T17:26:34.056Z,5.68
2023-01-31T17:29:02.521Z,4.75
2023-01-31T17:31:30.133Z,4.82
2023-01-31T17:33:58.567Z,5.70
2023-01-31T17:36:25.582Z,6.10
2023-01-31T17:38:53.479Z,5.32
2023-01-31T17:41:21.850Z,5.45
2023-01-31T17:43:50.202Z,5.40
2023-01-31T17:46:18.662Z,5.68
2023-01-31T17:48:47.555Z,6.70
2023-01-31T17:51:16.336Z,6.97
2023-01-31T17:53:49.918Z,5.90
2023-01-31T17:56:18.361Z,6.47
2023-01-31T17:58:46.393Z,5.65
2023-01-31T18:01:13.620Z,5.88
2023-01-31T18:03:41.551Z,5.68
2023-01-31T18:06:09.454Z,6.75
2023-01-31T18:08:38.278Z,7.22
2023-01-31T18:11:05.873Z,6.35
2023-01-31T18:13:33.325Z,6.70
2023-01-31T18:16:05.325Z,5.95
2023-01-31T18:18:32.502Z,6.97
2023-01-31T18:20:59.697Z,6.28
2023-01-31T18:23:26.752Z,6.90
2023-01-31T18:25:55.239Z,7.05
2023-01-31T18:28:22.372Z,7.43
2023-01-31T18:30:49.555Z,6.68
2023-01-31T18:33:16.692Z,6.45
2023-01-31T18:35:43.855Z,7.72
2023-01-31T18:38:11.030Z,6.68
2023-01-31T18:40:39.747Z,7.90
2023-01-31T18:43:08.279Z,7.20
2023-01-31T18:45:37.762Z,8.75
2023-01-31T18:48:04.742Z,9.45
2023-01-31T18:50:32.933Z,9.23
2023-01-31T18:53:00.565Z,9.85
2023-01-31T18:55:27.578Z,10.18
2023-01-31T18:57:54.569Z,9.65
2023-01-31T19:00:23.928Z,10.48
2023-01-31T19:02:51.037Z,10.73
2023-01-31T19:05:19.150Z,11.52
2023-01-31T19:07:46.315Z,11.43
2023-01-31T19:10:13.604Z,11.85
2023-01-31T19:12:40.966Z,12.18
2023-01-31T19:15:10.456Z,13.77
2023-01-31T19:17:42.340Z,12.30
2023-01-31T19:20:10.944Z,12.68
2023-01-31T19:22:39.762Z,12.73
2023-01-31T19:25:07.356Z,12.50
2023-01-31T19:27:34.497Z,13.55
2023-01-31T19:30:01.708Z,13.15
2023-01-31T19:32:28.874Z,12.95
2023-01-31T19:34:57.597Z,14.13
2023-01-31T19:37:24.809Z,11.85
2023-01-31T19:39:51.820Z,12.60
2023-01-31T19:42:18.810Z,13.40
2023-01-31T19:44:45.790Z,13.07
2023-01-31T19:47:12.777Z,14.15
2023-01-31T19:49:39.777Z,12.48
2023-01-31T19:52:08.317Z,12.27
2023-01-31T19:54:35.367Z,13.88
2023-01-31T19:57:02.409Z,13.70
2023-01-31T19:59:29.612Z,13.40
2023-01-31T20:01:56.881Z,13.43
2023-01-31T20:04:25.662Z,15.45
2023-01-31T20:06:52.618Z,13.65
2023-01-31T20:09:21.247Z,14.80
2023-01-31T20:11:48.253Z,15.15
2023-01-31T20:14:15.261Z,15.80
2023-01-31T20:16:42.341Z,15.95
2023-01-31T20:19:09.429Z,16.15
2023-01-31T20:21:36.424Z,14.90
2023-01-31T20:24:03.638Z,14.82
2023-01-31T20:26:32.482Z,16.10
2023-01-31T20:28:59.516Z,13.32
2023-01-31T20:31:26.622Z,17.02
2023-01-31T20:33:53.857Z,16.50
2023-01-31T20:36:23.608Z,17.63
2023-01-31T20:38:50.962Z,16.23
2023-01-31T20:41:18.009Z,16.70
2023-01-31T20:43:46.464Z,15.98
2023-01-31T20:46:14.911Z,17.00
2023-01-31T20:48:42.402Z,16.33
2023-01-31T20:51:09.717Z,15.73
2023-01-31T20:53:37.873Z,17.60
2023-01-31T20:56:07.082Z,17.17
2023-01-31T20:58:35.982Z,17.48
2023-01-31T21:01:06.542Z,19.60
2023-01-31T21:03:34.750Z,18.75
2023-01-31T21:06:02.851Z,19.20
2023-01-31T21:08:31.876Z,19.10
2023-01-31T21:11:04.133Z,20.10
2023-01-31T21:13:31.153Z,21.13
2023-01-31T21:15:59.970Z,21.40
2023-01-31T21:18:30.328Z,21.25
2023-01-31T21:20:57.270Z,25.45
2023-01-31T21:23:24.579Z,22.23
2023-01-31T21:25:52.506Z,23.65
2023-01-31T21:28:19.615Z,21.67
2023-01-31T21:30:57.650Z,21.95
2023-01-31T21:33:24.747Z,21.30
2023-01-31T21:35:56.048Z,22.38
2023-01-31T21:38:23.068Z,22.85
2023-01-31T21:40:50.159Z,23.27
2023-01-31T21:43:17.114Z,23.17
2023-01-31T21:45:44.118Z,23.67
2023-01-31T21:48:15.425Z,22.90
2023-01-31T21:50:42.481Z,23.05
2023-01-31T21:53:10.867Z,22.67
2023-01-31T21:55:37.830Z,23.73
2023-01-31T21:58:07.949Z,20.75
2023-01-31T22:00:34.970Z,22.48
2023-01-31T22:03:01.988Z,23.05
2023-01-31T22:05:28.981Z,22.15
2023-01-31T22:07:56.035Z,21.25
2023-01-31T22:10:24.442Z,22.35
2023-01-31T22:12:52.015Z,22.63
2023-01-31T22:15:18.984Z,23.02
2023-01-31T22:17:45.975Z,23.35
2023-01-31T22:20:13.193Z,23.30
2023-01-31T22:22:40.118Z,24.38
2023-01-31T22:25:07.958Z,25.02
2023-01-31T22:27:36.339Z,25.10
2023-01-31T22:30:15.087Z,23.83
2023-01-31T22:32:42.622Z,25.10
2023-01-31T22:35:10.450Z,24.55
2023-01-31T22:37:37.481Z,23.77
2023-01-31T22:40:05.127Z,24.67
2023-01-31T22:42:32.153Z,24.75
2023-01-31T22:45:00.955Z,24.90
2023-01-31T22:47:28.115Z,22.98
2023-01-31T22:49:55.107Z,24.52
2023-01-31T22:52:22.042Z,24.55
2023-01-31T22:54:49.070Z,23.15
2023-01-31T22:57:16.089Z,22.27
2023-01-31T22:59:43.142Z,22.60
2023-01-31T23:02:11.579Z,21.52
2023-01-31T23:04:38.791Z,22.10
2023-01-31T23:07:05.833Z,21.52
2023-01-31T23:09:32.829Z,21.55
2023-01-31T23:11:59.872Z,21.48
2023-01-31T23:14:26.937Z,21.45
2023-01-31T23:16:54.075Z,20.88
2023-01-31T23:19:22.422Z,21.15
2023-01-31T23:21:49.498Z,20.35
2023-01-31T23:24:16.674Z,20.85
2023-01-31T23:26:43.886Z,20.98
2023-01-31T23:29:12.539Z,20.17
2023-01-31T23:31:39.907Z,19.48
2023-01-31T23:34:07.191Z,20.73
2023-01-31T23:36:35.832Z,19.77
2023-01-31T23:39:03.021Z,18.30
2023-01-31T23:41:30.165Z,16.50
2023-01-31T23:43:57.203Z,17.40
2023-01-31T23:46:24.317Z,15.93
2023-01-31T23:48:51.377Z,17.02
2023-01-31T23:51:18.558Z,17.63
2023-01-31T23:53:47.049Z,16.52
2023-01-31T23:56:14.101Z,16.75
2023-01-31T23:58:41.168Z,16.15
